createdAt,value
2017-11-05T16:03:13.073Z,12.08
2017-11-05T16:05:40.976Z,12.13
2017-11-05T16:08:08.915Z,12.10
2017-11-05T16:10:36.841Z,12.06
2017-11-05T16:13:05.212Z,12.06
2017-11-05T16:15:33.172Z,12.03
2017-11-05T16:18:01.100Z,12.07
2017-11-05T16:20:29.028Z,12.09
2017-11-05T16:22:57.361Z,12.02
2017-11-05T16:25:25.348Z,11.98
2017-11-05T16:27:53.280Z,12.00
2017-11-05T16:30:21.226Z,12.04
2017-11-05T16:32:49.550Z,11.94
2017-11-05T16:35:17.650Z,11.82
2017-11-05T16:37:45.609Z,11.76
2017-11-05T16:40:13.581Z,11.66
2017-11-05T16:42:41.652Z,11.60
2017-11-05T16:45:09.738Z,11.59
2017-11-05T16:47:38.065Z,11.55
2017-11-05T16:50:05.987Z,11.44
2017-11-05T16:52:34.306Z,11.13
2017-11-05T16:55:02.229Z,10.94
2017-11-05T16:57:30.164Z,10.78
2017-11-05T16:59:58.079Z,10.73
2017-11-05T17:02:26.409Z,10.63
2017-11-05T17:04:54.417Z,10.56
2017-11-05T17:07:22.740Z,10.51
2017-11-05T17:09:50.670Z,10.43
2017-11-05T17:12:19.007Z,10.32
2017-11-05T17:14:46.930Z,10.30
2017-11-05T17:17:14.860Z,10.25
2017-11-05T17:19:42.769Z,10.15
2017-11-05T17:22:10.699Z,10.19
2017-11-05T17:24:38.634Z,10.16
2017-11-05T17:27:06.651Z,10.16
2017-11-05T17:29:34.982Z,10.16
2017-11-05T17:32:02.916Z,10.11
2017-11-05T17:34:30.996Z,10.08
2017-11-05T17:36:58.974Z,10.12
2017-11-05T17:39:26.890Z,10.10
2017-11-05T17:41:54.852Z,10.07
2017-11-05T17:44:22.769Z,10.02
2017-11-05T17:46:50.695Z,10.01
2017-11-05T17:49:18.608Z,10.02
2017-11-05T17:51:46.526Z,10.01
2017-11-05T17:54:14.441Z,10.03
2017-11-05T17:56:42.350Z,9.98
2017-11-05T17:59:10.283Z,9.98
2017-11-05T18:01:38.184Z,9.95
2017-11-05T18:04:06.113Z,9.90
2017-11-05T18:06:34.028Z,9.88
2017-11-05T18:09:01.934Z,9.94
2017-11-05T18:11:29.874Z,9.81
2017-11-05T18:13:57.812Z,9.78
2017-11-05T18:16:25.734Z,9.80
2017-11-05T18:18:54.105Z,9.74
2017-11-05T18:21:22.415Z,9.75
2017-11-05T18:23:50.341Z,9.73
2017-11-05T18:26:18.366Z,9.68
2017-11-05T18:28:46.306Z,9.73
2017-11-05T18:31:14.238Z,9.73
2017-11-05T18:33:42.216Z,9.72
2017-11-05T18:36:10.567Z,9.65
2017-11-05T18:38:38.492Z,9.59
2017-11-05T18:41:06.416Z,9.63
2017-11-05T18:43:34.342Z,9.58
2017-11-05T18:46:02.242Z,9.54
2017-11-05T18:48:30.176Z,9.53
2017-11-05T18:50:58.097Z,9.50
2017-11-05T18:53:26.025Z,9.49
2017-11-05T18:55:54.179Z,9.57
2017-11-05T18:58:22.078Z,9.53
2017-11-05T19:00:50.015Z,9.56
2017-11-05T19:03:17.916Z,9.51
2017-11-05T19:05:45.906Z,9.51
2017-11-05T19:08:13.814Z,9.53
2017-11-05T19:10:41.720Z,9.55
2017-11-05T19:13:09.705Z,9.46
2017-11-05T19:15:37.623Z,9.47
2017-11-05T19:18:05.603Z,9.48
2017-11-05T19:20:33.509Z,9.50
2017-11-05T19:23:01.411Z,9.50
2017-11-05T19:25:29.746Z,9.49
2017-11-05T19:27:57.729Z,9.57
2017-11-05T19:30:25.669Z,9.57
2017-11-05T19:32:53.606Z,9.60
2017-11-05T19:35:21.531Z,9.55
2017-11-05T19:37:49.449Z,9.51
2017-11-05T19:40:17.354Z,9.53
2017-11-05T19:42:45.277Z,9.53
2017-11-05T19:45:13.189Z,9.57
2017-11-05T19:47:41.096Z,9.60
2017-11-05T19:50:09.428Z,9.57
2017-11-05T19:52:37.337Z,9.67
2017-11-05T19:55:05.660Z,9.66
2017-11-05T19:57:33.592Z,9.63
2017-11-05T20:00:01.913Z,9.63
2017-11-05T20:02:29.884Z,9.57
2017-11-05T20:04:57.881Z,9.58
2017-11-05T20:07:25.807Z,9.58
2017-11-05T20:09:53.824Z,9.60
2017-11-05T20:12:21.753Z,9.60
2017-11-05T20:14:50.045Z,9.60
2017-11-05T20:17:17.961Z,9.65
2017-11-05T20:19:46.273Z,9.60
2017-11-05T20:22:14.280Z,9.65
2017-11-05T20:24:42.209Z,9.63
2017-11-05T20:27:10.129Z,9.67
2017-11-05T20:29:38.774Z,9.65
2017-11-05T20:32:07.125Z,9.69
2017-11-05T20:34:36.019Z,9.65
2017-11-05T20:37:04.222Z,9.62
2017-11-05T20:39:32.473Z,9.67
2017-11-05T20:42:00.416Z,9.65
2017-11-05T20:44:28.723Z,9.60
2017-11-05T20:46:56.616Z,9.74
2017-11-05T20:49:24.542Z,9.75
2017-11-05T20:51:52.469Z,9.67
2017-11-05T20:54:20.373Z,9.68
2017-11-05T20:56:48.290Z,9.67
2017-11-05T20:59:16.277Z,9.66
2017-11-05T21:01:44.215Z,9.72
2017-11-05T21:04:12.140Z,9.68
2017-11-05T21:06:40.053Z,9.68
2017-11-05T21:09:07.969Z,9.70
2017-11-05T21:11:36.322Z,9.70
2017-11-05T21:14:04.280Z,9.66
2017-11-05T21:16:32.189Z,9.73
2017-11-05T21:19:00.519Z,9.71
2017-11-05T21:21:28.504Z,9.71
2017-11-05T21:23:56.407Z,9.72
2017-11-05T21:26:24.381Z,9.72
2017-11-05T21:28:52.281Z,9.67
2017-11-05T21:31:20.760Z,9.69
2017-11-05T21:33:48.677Z,9.75
2017-11-05T21:36:16.973Z,9.68
2017-11-05T21:38:44.921Z,9.69
2017-11-05T21:41:13.512Z,9.70
2017-11-05T21:43:41.710Z,9.77
2017-11-05T21:46:09.874Z,9.69
2017-11-05T21:48:38.177Z,9.70
2017-11-05T21:51:06.461Z,9.73
2017-11-05T21:53:34.424Z,9.75
2017-11-05T21:56:02.341Z,9.75
2017-11-05T21:58:31.651Z,9.68
2017-11-05T22:00:59.969Z,9.69
2017-11-05T22:03:27.911Z,9.72
2017-11-05T22:05:55.882Z,9.66
2017-11-05T22:08:23.801Z,9.63
2017-11-05T22:10:51.786Z,9.64
2017-11-05T22:13:20.218Z,9.65
2017-11-05T22:15:48.221Z,9.65
2017-11-05T22:18:16.197Z,9.70
2017-11-05T22:20:44.099Z,9.72
2017-11-05T22:23:12.013Z,9.66
2017-11-05T22:25:39.987Z,9.58
2017-11-05T22:28:07.923Z,9.53
2017-11-05T22:30:35.837Z,9.54
2017-11-05T22:33:04.144Z,9.55
2017-11-05T22:35:32.449Z,9.51
2017-11-05T22:38:00.364Z,9.57
2017-11-05T22:40:28.289Z,9.53
2017-11-05T22:42:56.185Z,9.58
2017-11-05T22:45:24.100Z,9.64
2017-11-05T22:47:52.017Z,9.58
2017-11-05T22:50:20.049Z,9.64
2017-11-05T22:52:47.999Z,9.58
2017-11-05T22:55:15.928Z,9.54
2017-11-05T22:57:43.908Z,9.54
2017-11-05T23:00:13.621Z,9.54
2017-11-05T23:02:41.537Z,9.52
2017-11-05T23:05:09.552Z,9.55
2017-11-05T23:07:37.463Z,9.55
2017-11-05T23:10:05.386Z,9.44
2017-11-05T23:12:33.352Z,9.37
2017-11-05T23:15:01.264Z,9.46
2017-11-05T23:17:29.297Z,9.44
2017-11-05T23:19:57.205Z,9.40
2017-11-05T23:22:25.110Z,9.38
2017-11-05T23:24:53.107Z,9.37
2017-11-05T23:27:21.067Z,9.28
2017-11-05T23:29:48.996Z,9.26
2017-11-05T23:32:17.013Z,9.28
2017-11-05T23:34:44.927Z,9.27
2017-11-05T23:37:12.936Z,9.31
2017-11-05T23:39:40.832Z,9.30
2017-11-05T23:42:09.166Z,9.30
2017-11-05T23:44:37.065Z,9.36
2017-11-05T23:47:05.024Z,9.38
2017-11-05T23:49:32.953Z,9.30
2017-11-05T23:52:01.585Z,9.28
2017-11-05T23:54:29.545Z,9.20
2017-11-05T23:56:57.469Z,9.23
2017-11-05T23:59:25.441Z,9.26
